Time;durP1;ratioP1;P1;durP2;ratioP2;P2;SDS_P1;SDS_P2;PMS_P1;PMS_P2;Temp;Humidity;BMP_temperature;BMP_pressure;BME280_temperature;BME280_humidity;BME280_pressure;Samples;Min_cycle;Max_cycle;Signal;HPM_P1;HPM_P2
2021/12/14 00:01:53;;;;;;;52.63;29.88;;;;;;;3.73;84.96;101660.97;4957515;28;20049;-88
2021/12/14 00:04:27;;;;;;;45.55;27.50;;;;;;;3.68;85.09;101659.03;4968671;28;20043;-88
2021/12/14 00:06:56;;;;;;;48.33;28.88;;;;;;;3.67;85.05;101646.44;4945972;28;20046;-88
2021/12/14 00:09:30;;;;;;;48.25;28.35;;;;;;;3.70;85.14;101645.09;4945428;28;20042;-89
2021/12/14 00:17:13;;;;;;;61.90;33.53;;;;;;;3.61;84.81;101644.81;4945236;28;20047;-88
2021/12/14 00:19:41;;;;;;;62.33;31.40;;;;;;;3.59;85.13;101657.97;4947288;28;20035;-88
2021/12/14 00:22:32;;;;;;;75.97;34.15;;;;;;;3.59;84.96;101654.41;4959636;28;20034;-87
2021/12/14 00:25:00;;;;;;;86.40;37.47;;;;;;;3.56;84.88;101642.09;4960566;28;20078;-88
2021/12/14 00:27:27;;;;;;;87.57;39.70;;;;;;;3.58;85.22;101639.88;4960141;28;20434;-87
2021/12/14 00:29:58;;;;;;;68.28;33.97;;;;;;;3.58;84.82;101636.31;4948479;28;20063;-87
2021/12/14 00:32:30;;;;;;;72.57;34.28;;;;;;;3.53;84.95;101639.06;4951265;28;20191;-87
2021/12/14 00:35:02;;;;;;;57.08;27.92;;;;;;;3.52;84.81;101642.94;4960867;28;20046;-88
2021/12/14 00:37:36;;;;;;;50.58;27.00;;;;;;;3.55;84.86;101634.97;4943323;28;20136;-87
2021/12/14 00:40:26;;;;;;;48.75;26.75;;;;;;;3.57;84.98;101630.03;4935559;28;20567;-88
2021/12/14 00:42:55;;;;;;;52.85;27.48;;;;;;;3.56;84.63;101641.25;4963521;28;20077;-88
2021/12/14 00:45:24;;;;;;;55.15;29.23;;;;;;;3.57;84.92;101629.22;4944855;28;20046;-88
2021/12/14 00:47:52;;;;;;;61.75;31.48;;;;;;;3.54;84.61;101627.03;4943179;28;20141;-87
2021/12/14 00:50:22;;;;;;;49.92;28.67;;;;;;;3.54;84.96;101616.09;4945594;28;20050;-88
2021/12/14 00:52:49;;;;;;;57.63;29.38;;;;;;;3.56;84.75;101619.38;4961549;28;20066;-87
2021/12/14 00:55:24;;;;;;;51.25;26.23;;;;;;;3.55;84.56;101604.03;4959281;28;20089;-88
2021/12/14 00:57:52;;;;;;;49.08;27.10;;;;;;;3.50;84.69;101602.13;4945075;28;20130;-87
2021/12/14 01:00:23;;;;;;;56.80;28.00;;;;;;;3.45;84.67;101609.53;4944128;28;20047;-88
2021/12/14 01:02:50;;;;;;;46.78;24.55;;;;;;;3.38;84.80;101615.31;4954693;28;20043;-87
2021/12/14 01:05:25;;;;;;;50.97;25.50;;;;;;;3.37;85.26;101615.56;4959077;28;20050;-88
2021/12/14 01:07:53;;;;;;;49.55;26.98;;;;;;;3.43;85.17;101622.69;4944413;28;20105;-87
2021/12/14 01:10:25;;;;;;;47.45;24.27;;;;;;;3.39;85.10;101622.41;4958668;28;20094;-87
2021/12/14 01:12:57;;;;;;;;;;;;;;;3.36;85.03;101619.41;4942681;28;20623;-87
2021/12/14 01:16:15;;;;;;;39.33;22.75;;;;;;;3.39;84.68;101619.66;4959960;28;20016;-86
2021/12/14 01:18:45;;;;;;;49.15;22.38;;;;;;;3.40;84.53;101609.53;4957432;28;20077;-88
2021/12/14 01:24:41;;;;;;;44.20;25.83;;;;;;;3.27;84.80;101610.94;4944107;28;20053;-87
2021/12/14 01:27:16;;;;;;;41.90;23.48;;;;;;;3.29;85.10;101613.38;4937553;28;20031;-87
2021/12/14 01:29:46;;;;;;;44.00;24.70;;;;;;;3.32;84.62;101612.84;4960382;28;20068;-87
2021/12/14 01:32:13;;;;;;;42.50;25.73;;;;;;;3.26;84.81;101609.28;4967733;28;20102;-87
2021/12/14 01:34:40;;;;;;;49.58;28.30;;;;;;;3.24;84.86;101613.38;4928188;28;20031;-88
2021/12/14 01:37:14;;;;;;;56.20;27.27;;;;;;;3.23;85.12;101611.78;4951860;28;20228;-86
2021/12/14 01:40:01;;;;;;;48.88;28.95;;;;;;;3.19;85.20;101614.22;4926209;28;20130;-87
2021/12/14 01:42:35;;;;;;;54.53;29.67;;;;;;;3.17;85.25;101612.84;4934147;28;20043;-87
2021/12/14 01:45:13;;;;;;;51.92;28.85;;;;;;;3.21;85.20;101608.47;4930884;28;20133;-86
2021/12/14 01:47:47;;;;;;;49.42;28.13;;;;;;;3.22;85.02;101607.38;4960653;28;20039;-87
2021/12/14 01:50:27;;;;;;;56.25;31.23;;;;;;;3.22;85.28;101607.38;4938212;28;20077;-86
2021/12/14 01:52:57;;;;;;;58.25;31.38;;;;;;;3.25;84.72;101602.19;4950332;28;20039;-87
2021/12/14 01:55:27;;;;;;;58.78;29.35;;;;;;;3.26;84.58;101603.81;4938659;28;20051;-87
2021/12/14 01:57:57;;;;;;;51.05;28.85;;;;;;;3.24;84.56;101605.19;4924773;28;20059;-86
2021/12/14 02:00:33;;;;;;;54.90;29.77;;;;;;;3.25;84.52;101613.13;4942951;28;20066;-86
2021/12/14 02:03:03;;;;;;;45.30;27.02;;;;;;;3.23;84.76;101609.03;4958739;28;20039;-87
2021/12/14 02:05:39;;;;;;;56.35;28.00;;;;;;;3.19;84.68;101599.72;4942401;28;20099;-86
2021/12/14 02:08:39;;;;;;;49.88;27.65;;;;;;;3.11;84.73;101603.00;4949479;28;20053;-86
2021/12/14 02:11:08;;;;;;;48.53;26.33;;;;;;;3.10;85.02;101598.66;4947137;28;20073;-82
2021/12/14 02:13:44;;;;;;;50.38;25.23;;;;;;;3.11;84.69;101583.84;4928647;28;20046;-87
2021/12/14 02:16:14;;;;;;;43.83;25.67;;;;;;;3.14;84.90;101584.13;4941856;28;20035;-87
2021/12/14 02:18:58;;;;;;;42.60;23.98;;;;;;;3.11;84.70;101586.59;4949898;28;20039;-87
2021/12/14 02:21:28;;;;;;;46.78;24.13;;;;;;;3.07;84.99;101572.66;4956704;28;20061;-86
2021/12/14 02:23:58;;;;;;;48.25;26.17;;;;;;;3.09;84.59;101570.47;4936984;28;20042;-87
2021/12/14 02:26:29;;;;;;;47.45;24.52;;;;;;;3.08;84.73;101580.59;4965352;28;20122;-88
2021/12/14 02:28:58;;;;;;;35.45;20.05;;;;;;;3.04;85.04;101576.75;4933857;28;20731;-87
2021/12/14 02:31:26;;;;;;;35.13;21.15;;;;;;;3.01;85.02;101576.50;4946919;28;20101;-88
2021/12/14 02:33:56;;;;;;;33.78;17.33;;;;;;;2.96;85.11;101588.25;4940334;28;20043;-87
2021/12/14 02:36:27;;;;;;;30.25;15.68;;;;;;;2.99;85.04;101593.16;4957459;28;20051;-87
2021/12/14 02:39:06;;;;;;;31.80;16.50;;;;;;;3.02;85.55;101597.25;4966269;28;20049;-87
2021/12/14 02:41:44;;;;;;;31.00;17.95;;;;;;;3.03;85.00;101590.69;4950680;28;20043;-85
2021/12/14 02:44:12;;;;;;;25.67;15.60;;;;;;;3.01;84.93;101591.00;4957630;28;20039;-87
2021/12/14 02:46:46;;;;;;;25.58;15.85;;;;;;;2.99;84.90;101593.16;4967237;28;20051;-87
2021/12/14 02:49:17;;;;;;;27.05;13.20;;;;;;;2.94;85.26;101584.94;4961638;28;20479;-86
2021/12/14 02:51:52;;;;;;;19.30;10.85;;;;;;;2.95;85.53;101586.59;4958036;28;20390;-87
2021/12/14 02:54:29;;;;;;;20.73;11.82;;;;;;;2.94;85.06;101584.94;4941206;28;20050;-86
2021/12/14 02:57:01;;;;;;;19.85;10.60;;;;;;;2.93;84.93;101588.81;4942340;28;20065;-86
2021/12/14 02:59:31;;;;;;;17.30;10.40;;;;;;;2.92;85.55;101603.56;4948257;28;20093;-86
2021/12/14 03:02:04;;;;;;;13.88;8.57;;;;;;;2.92;85.61;101598.09;4950302;28;20427;-88
2021/12/14 03:04:36;;;;;;;14.57;8.68;;;;;;;2.94;85.19;101600.53;4941913;28;20043;-85
2021/12/14 03:07:04;;;;;;;18.63;9.70;;;;;;;2.94;85.60;101606.84;4956462;28;20034;-86
2021/12/14 03:09:56;;;;;;;13.73;8.63;;;;;;;2.95;85.80;101603.03;4954388;28;20034;-89
2021/12/14 03:12:41;;;;;;;14.35;6.90;;;;;;;2.99;85.71;101606.03;4959245;28;20046;-86
2021/12/14 03:15:10;;;;;;;10.80;6.72;;;;;;;3.02;85.44;101603.56;4947217;28;20556;-86
2021/12/14 03:17:39;;;;;;;14.80;7.80;;;;;;;3.02;85.42;101603.56;4956820;28;20035;-86
2021/12/14 03:20:12;;;;;;;15.13;7.38;;;;;;;3.05;85.49;101611.22;4958240;28;20074;-87
2021/12/14 03:22:51;;;;;;;13.70;8.55;;;;;;;3.05;85.35;101608.47;4942260;28;20443;-86
2021/12/14 03:25:20;;;;;;;12.38;8.38;;;;;;;3.07;85.57;101600.03;4939473;28;20158;-86
2021/12/14 03:27:51;;;;;;;15.10;7.35;;;;;;;3.04;85.63;101606.81;4926020;28;20047;-86
2021/12/14 03:30:43;;;;;;;15.23;8.02;;;;;;;3.03;85.38;101605.22;4940925;28;20047;-86
2021/12/14 03:33:17;;;;;;;10.70;6.45;;;;;;;3.01;85.52;101593.72;4947756;28;20053;-86
2021/12/14 03:36:09;;;;;;;11.32;6.65;;;;;;;3.01;85.42;101591.00;4941014;28;20055;-86
2021/12/14 03:38:48;;;;;;;7.72;5.50;;;;;;;3.02;85.36;101589.06;4940825;28;20035;-86
2021/12/14 03:41:22;;;;;;;11.10;5.15;;;;;;;3.03;85.56;101596.19;4962490;28;20487;-86
2021/12/14 03:43:59;;;;;;;7.40;4.82;;;;;;;3.04;85.82;101589.63;4956288;28;20047;-86
2021/12/14 03:46:29;;;;;;;8.73;5.53;;;;;;;3.07;85.65;101589.88;4941191;28;20491;-86
2021/12/14 03:48:58;;;;;;;10.75;6.30;;;;;;;3.11;85.93;101594.78;4944372;28;20133;-86
2021/12/14 03:51:26;;;;;;;12.48;6.45;;;;;;;3.15;85.68;101595.91;4956110;28;20175;-87
2021/12/14 03:53:55;;;;;;;17.38;7.43;;;;;;;3.16;85.84;101601.09;4930674;28;20058;-86
2021/12/14 03:56:23;;;;;;;21.70;10.95;;;;;;;3.15;86.01;101585.75;4956854;28;20039;-86
2021/12/14 03:58:52;;;;;;;14.93;8.52;;;;;;;3.16;85.63;101592.88;4954547;28;20041;-86
2021/12/14 04:01:24;;;;;;;16.58;7.07;;;;;;;3.19;86.10;101591.50;4940830;28;20044;-86
2021/12/14 04:03:57;;;;;;;12.60;6.40;;;;;;;3.20;86.14;101583.03;4947233;28;20050;-86
2021/12/14 04:06:28;;;;;;;14.80;5.68;;;;;;;3.25;86.00;101584.94;4942294;28;20038;-86
2021/12/14 04:08:55;;;;;;;9.32;4.18;;;;;;;3.27;86.43;101594.50;4956013;28;20439;-86
2021/12/14 04:11:23;;;;;;;7.18;3.80;;;;;;;3.27;86.62;101600.00;4941027;28;20483;-86
2021/12/14 04:13:53;;;;;;;6.88;3.50;;;;;;;3.29;86.51;101603.25;4940466;28;20133;-86
2021/12/14 04:16:24;;;;;;;6.13;4.32;;;;;;;3.29;86.60;101597.78;4953010;28;20059;-86
2021/12/14 04:18:52;;;;;;;9.00;4.97;;;;;;;3.32;86.96;101594.50;4942068;28;20154;-86
2021/12/14 04:21:20;;;;;;;13.88;6.95;;;;;;;3.35;86.91;101596.69;4941061;28;20051;-86
2021/12/14 04:23:50;;;;;;;13.95;5.78;;;;;;;3.35;86.56;101595.88;4958331;28;20129;-86
2021/12/14 04:26:17;;;;;;;7.75;5.13;;;;;;;3.34;86.86;101605.16;4941867;28;20046;-86
2021/12/14 04:29:03;;;;;;;6.45;4.72;;;;;;;3.33;87.02;101609.00;4941822;28;20074;-86
2021/12/14 04:31:35;;;;;;;6.57;4.45;;;;;;;3.32;87.12;101604.63;4938415;28;20051;-85
2021/12/14 04:34:04;;;;;;;8.35;4.28;;;;;;;3.33;87.25;101614.47;4924460;28;20043;-86
2021/12/14 04:36:31;;;;;;;6.15;3.58;;;;;;;3.33;87.54;101619.97;4956775;28;20035;-86
2021/12/14 04:39:28;;;;;;;6.53;4.10;;;;;;;3.33;87.67;101625.44;4957256;28;20130;-86
2021/12/14 04:53:11;;;;;;;7.57;3.92;;;;;;;3.31;88.26;101636.63;4960473;28;20051;-86
2021/12/14 04:55:40;;;;;;;7.55;3.80;;;;;;;3.32;88.30;101637.47;4966599;28;20046;-85
2021/12/14 04:58:07;;;;;;;7.25;4.05;;;;;;;3.31;88.26;101638.56;4949343;28;20047;-86
2021/12/14 05:00:49;;;;;;;6.40;4.10;;;;;;;3.32;88.28;101645.66;4960363;28;20129;-85
2021/12/14 05:03:24;;;;;;;6.10;3.92;;;;;;;3.30;88.60;101643.22;4935527;28;20120;-85
2021/12/14 05:06:08;;;;;;;8.73;3.97;;;;;;;3.29;88.76;101651.69;4950160;28;20047;-86
2021/12/14 05:11:12;;;;;;;5.68;3.60;;;;;;;3.32;89.32;101651.16;4948685;28;20055;-86
2021/12/14 05:13:43;;;;;;;8.10;4.53;;;;;;;3.33;89.25;101647.31;4931702;28;20174;-85
2021/12/14 05:16:19;;;;;;;12.82;5.07;;;;;;;3.34;89.60;101632.53;4955905;28;20047;-86
2021/12/14 05:18:54;;;;;;;6.53;4.25;;;;;;;3.34;90.22;101647.03;4944260;28;20047;-85
2021/12/14 05:21:35;;;;;;;8.10;4.82;;;;;;;3.36;89.76;101649.53;4965373;28;20058;-86
2021/12/14 05:24:05;;;;;;;9.48;4.72;;;;;;;3.37;90.00;101637.47;4938650;28;20053;-86
2021/12/14 05:26:33;;;;;;;11.68;4.55;;;;;;;3.38;90.07;101639.09;4975123;28;20169;-86
2021/12/14 05:29:02;;;;;;;10.00;5.10;;;;;;;3.41;90.14;101636.66;4974099;28;20067;-87
2021/12/14 05:31:29;;;;;;;10.55;4.72;;;;;;;3.44;90.55;101635.28;4945471;28;20102;-86
2021/12/14 05:33:56;;;;;;;7.10;4.70;;;;;;;3.48;90.81;101631.69;4950019;28;20451;-86
2021/12/14 05:36:24;;;;;;;5.90;3.58;;;;;;;3.54;90.96;101624.31;4956906;28;20561;-86
2021/12/14 05:39:01;;;;;;;4.93;3.08;;;;;;;3.62;92.09;101629.22;4960567;28;20042;-85
2021/12/14 05:44:25;;;;;;;8.45;5.18;;;;;;;3.78;93.52;101633.56;4960604;28;20050;-85
2021/12/14 05:46:59;;;;;;;9.48;3.88;;;;;;;3.85;92.57;101636.81;4954006;28;20047;-86
2021/12/14 05:49:28;;;;;;;5.15;3.17;;;;;;;3.89;92.76;101624.19;4959851;28;20066;-85
2021/12/14 05:51:58;;;;;;;5.95;3.15;;;;;;;3.94;93.22;101626.94;4937262;28;20078;-85
2021/12/14 05:54:29;;;;;;;5.45;3.15;;;;;;;4.00;93.04;101625.78;4941979;28;20066;-85
2021/12/14 05:57:00;;;;;;;7.20;3.60;;;;;;;4.06;94.21;101652.06;4943768;28;20050;-85
2021/12/14 05:59:31;;;;;;;5.38;3.45;;;;;;;4.16;93.83;101657.50;4966146;28;20086;-85
2021/12/14 06:02:00;;;;;;;5.53;3.92;;;;;;;4.24;94.57;101651.44;4960095;28;20113;-85
2021/12/14 06:04:33;;;;;;;7.40;3.90;;;;;;;4.32;94.02;101650.88;4941981;28;20050;-85
2021/12/14 06:07:00;;;;;;;7.13;4.07;;;;;;;4.39;94.21;101656.06;4961236;28;20037;-85
2021/12/14 06:09:31;;;;;;;9.00;3.85;;;;;;;4.44;94.24;101653.28;4959642;28;20508;-86
2021/12/14 06:12:06;;;;;;;10.70;5.15;;;;;;;4.49;94.69;101666.97;4960192;28;20118;-85
2021/12/14 06:14:33;;;;;;;8.50;5.00;;;;;;;4.56;94.92;101674.88;4944899;28;20098;-85
2021/12/14 06:17:05;;;;;;;7.20;5.10;;;;;;;4.60;95.54;101673.22;4960462;28;20039;-85
2021/12/14 06:19:41;;;;;;;7.70;4.93;;;;;;;4.66;95.31;101677.59;4949646;28;20392;-85
2021/12/14 06:22:14;;;;;;;9.48;5.35;;;;;;;4.70;95.27;101678.63;4960401;28;20581;-85
2021/12/14 06:24:48;;;;;;;10.32;5.85;;;;;;;4.75;95.09;101678.59;4974196;28;20367;-86
2021/12/14 06:27:20;;;;;;;9.63;5.68;;;;;;;4.76;94.64;101683.81;4927323;28;20062;-86
2021/12/14 06:29:56;;;;;;;10.88;6.22;;;;;;;4.79;94.59;101683.22;4958912;28;20926;-85
2021/12/14 06:32:26;;;;;;;11.23;7.35;;;;;;;4.82;94.62;101684.59;4957387;28;20491;-85
2021/12/14 06:34:57;;;;;;;10.82;6.32;;;;;;;4.84;94.64;101696.13;4958908;28;20047;-85
2021/12/14 06:40:23;;;;;;;10.02;6.50;;;;;;;4.85;94.32;101697.75;4948161;28;20051;-86
2021/12/14 06:43:05;;;;;;;13.55;6.15;;;;;;;4.83;95.04;101689.81;4958439;28;20050;-86
2021/12/14 06:45:34;;;;;;;;;;;;;;;4.83;95.68;101699.97;4943973;28;20047;-86
2021/12/14 06:48:07;;;;;;;7.72;4.47;;;;;;;4.83;95.18;101688.97;4958537;28;19965;-85
2021/12/14 06:50:40;;;;;;;6.85;4.35;;;;;;;4.83;95.13;101692.56;4946667;28;20049;-85
2021/12/14 06:53:08;;;;;;;;;;;;;;;4.83;95.90;101683.50;4958123;28;20142;-86
2021/12/14 06:55:36;;;;;;;6.78;4.57;;;;;;;4.85;94.97;101681.28;4943625;28;20380;-86
2021/12/14 06:58:10;;;;;;;8.20;5.53;;;;;;;4.86;94.62;101694.72;4959417;28;20149;-86
2021/12/14 07:00:42;;;;;;;6.55;4.45;;;;;;;4.86;94.61;101689.25;4935484;28;20121;-86
2021/12/14 07:03:08;;;;;;;8.80;4.72;;;;;;;4.88;94.32;101684.28;4952940;28;20105;-85
2021/12/14 07:05:38;;;;;;;6.47;4.18;;;;;;;4.89;94.49;101685.09;4937829;28;20154;-85
2021/12/14 07:08:13;;;;;;;9.93;4.82;;;;;;;4.89;94.45;101687.84;4938504;28;20110;-85
2021/12/14 07:10:43;;;;;;;9.40;5.00;;;;;;;4.87;94.26;101684.59;4924433;29;20058;-84
2021/12/14 07:13:33;;;;;;;9.20;5.60;;;;;;;4.82;93.97;101681.84;4920409;29;20046;-86
2021/12/14 07:16:19;;;;;;;9.23;5.10;;;;;;;4.75;93.72;101675.88;4946509;28;20050;-86
2021/12/14 07:18:52;;;;;;;7.20;4.70;;;;;;;4.70;93.84;101667.66;4946694;28;20054;-86
2021/12/14 07:21:51;;;;;;;10.77;5.97;;;;;;;4.63;93.71;101672.66;4932494;28;20065;-86
2021/12/14 07:24:21;;;;;;;9.45;5.93;;;;;;;4.59;93.75;101669.66;4913265;28;20126;-85
2021/12/14 07:27:14;;;;;;;9.05;5.82;;;;;;;4.54;93.81;101668.84;4953665;28;20130;-85
2021/12/14 07:29:41;;;;;;;8.82;6.00;;;;;;;4.50;93.80;101667.78;4914270;28;20082;-86
2021/12/14 07:32:08;;;;;;;9.48;5.80;;;;;;;4.46;93.62;101666.69;4923372;29;20133;-85
2021/12/14 07:34:36;;;;;;;12.02;5.82;;;;;;;4.45;93.61;101665.09;4929479;28;20035;-86
2021/12/14 07:37:03;;;;;;;10.50;6.32;;;;;;;4.40;93.89;101657.69;4948323;28;20046;-85
2021/12/14 07:39:30;;;;;;;10.60;6.65;;;;;;;4.39;93.51;101663.47;4947580;28;20720;-86
2021/12/14 07:41:59;;;;;;;12.80;6.22;;;;;;;4.36;93.61;101655.78;4924943;29;20043;-86
2021/12/14 07:44:33;;;;;;;10.98;5.95;;;;;;;4.34;93.87;101658.00;4922814;29;20043;-85
2021/12/14 07:47:03;;;;;;;13.80;7.22;;;;;;;4.31;93.61;101660.19;4928231;28;20066;-85
2021/12/14 07:49:40;;;;;;;12.45;7.18;;;;;;;4.29;93.66;101673.34;4924962;29;20916;-85
2021/12/14 07:52:17;;;;;;;14.18;6.45;;;;;;;4.26;93.70;101665.69;4914453;28;20040;-86
2021/12/14 07:55:01;;;;;;;15.02;6.93;;;;;;;4.23;93.62;101662.72;4943693;28;20109;-85
2021/12/14 07:57:34;;;;;;;13.90;7.25;;;;;;;4.22;93.70;101658.31;4947481;28;20057;-85
2021/12/14 08:00:22;;;;;;;10.80;7.10;;;;;;;4.19;93.39;101659.69;4939342;28;20381;-85
2021/12/14 08:02:58;;;;;;;11.15;7.10;;;;;;;4.17;93.93;101653.69;4911574;29;20052;-86
2021/12/14 08:05:31;;;;;;;14.73;8.35;;;;;;;4.13;93.52;101644.38;4950571;28;20047;-85
2021/12/14 08:07:57;;;;;;;15.77;8.98;;;;;;;4.11;93.57;101652.06;4954554;28;20054;-85
2021/12/14 08:10:29;;;;;;;11.02;7.18;;;;;;;4.08;93.43;101652.63;4914462;28;20443;-87
2021/12/14 08:12:58;;;;;;;12.13;7.38;;;;;;;4.06;93.62;101663.03;4947309;28;20106;-85
2021/12/14 08:15:38;;;;;;;13.75;7.70;;;;;;;4.03;93.69;101657.28;4928950;28;20133;-86
2021/12/14 08:18:22;;;;;;;12.07;7.68;;;;;;;4.01;93.55;101663.06;4928863;28;20043;-86
2021/12/14 08:20:58;;;;;;;12.32;7.53;;;;;;;4.00;93.34;101664.16;4929581;29;20063;-87
2021/12/14 08:23:24;;;;;;;11.95;7.95;;;;;;;4.01;93.60;101667.72;4929016;29;20058;-86
2021/12/14 08:25:55;;;;;;;12.10;7.80;;;;;;;3.99;93.40;101659.78;4946131;28;20031;-83
2021/12/14 08:28:22;;;;;;;14.75;8.45;;;;;;;4.00;93.67;101669.63;4957470;28;20134;-84
2021/12/14 08:31:09;;;;;;;17.75;10.73;;;;;;;3.98;93.42;101671.84;4956718;28;20435;-83
2021/12/14 08:33:36;;;;;;;20.02;9.82;;;;;;;3.97;93.34;101664.69;4922713;28;20039;-84
2021/12/14 08:36:05;;;;;;;16.85;10.07;;;;;;;3.96;93.50;101668.56;4912094;28;20082;-84
2021/12/14 08:38:35;;;;;;;20.55;10.32;;;;;;;3.95;93.52;101664.16;4911311;28;20058;-84
2021/12/14 08:41:17;;;;;;;20.58;10.50;;;;;;;3.95;93.58;101655.13;4955505;28;20094;-84
2021/12/14 08:43:50;;;;;;;18.45;9.38;;;;;;;3.95;93.37;101655.13;4933713;28;20043;-86
2021/12/14 08:46:44;;;;;;;13.02;8.07;;;;;;;3.96;93.52;101668.56;4951452;28;20035;-84
2021/12/14 08:49:15;;;;;;;15.35;8.23;;;;;;;4.00;93.92;101668.81;4932573;28;20035;-83
2021/12/14 08:51:44;;;;;;;12.77;7.35;;;;;;;4.01;93.58;101674.03;4931665;28;20135;-84
2021/12/14 08:54:16;;;;;;;13.98;7.70;;;;;;;4.02;94.07;101667.44;4946411;28;20043;-84
2021/12/14 08:56:51;;;;;;;14.88;7.38;;;;;;;4.04;94.15;101670.72;4949788;28;20047;-84
2021/12/14 08:59:18;;;;;;;16.38;7.30;;;;;;;4.09;94.08;101676.19;4928364;28;20861;-84
2021/12/14 09:01:47;;;;;;;11.65;5.53;;;;;;;4.13;94.25;101674.50;4938690;28;21197;-83
2021/12/14 09:04:31;;;;;;;13.43;5.65;;;;;;;4.18;94.57;101669.00;4950416;28;20045;-84
2021/12/14 09:07:08;;;;;;;10.90;6.38;;;;;;;4.25;94.13;101675.03;4950321;28;20146;-84
2021/12/14 09:09:37;;;;;;;11.32;6.40;;;;;;;4.30;94.62;101669.53;4917636;28;20082;-83
2021/12/14 09:12:13;;;;;;;9.25;4.82;;;;;;;4.35;94.51;101665.09;4917057;28;20062;-84
2021/12/14 09:14:43;;;;;;;12.98;6.18;;;;;;;4.38;94.52;101662.63;4954443;28;20059;-84
2021/12/14 09:17:13;;;;;;;7.20;3.90;;;;;;;4.43;94.37;101670.00;4926379;28;21210;-84
2021/12/14 09:19:46;;;;;;;7.72;3.78;;;;;;;4.48;94.52;101670.81;4930787;28;20051;-84
2021/12/14 09:22:24;;;;;;;7.32;3.65;;;;;;;4.54;94.81;101671.59;4947616;28;20090;-85
2021/12/14 09:24:53;;;;;;;8.07;3.10;;;;;;;4.60;94.91;101684.19;4942985;28;20061;-86
2021/12/14 09:27:24;;;;;;;4.60;2.60;;;;;;;4.67;94.73;101673.72;4950144;28;20075;-85
2021/12/14 09:29:52;;;;;;;6.00;2.20;;;;;;;4.72;94.56;101681.91;4938957;28;20047;-87
2021/12/14 09:32:25;;;;;;;3.97;2.47;;;;;;;4.76;94.70;101678.34;4958870;28;20050;-86
2021/12/14 09:34:55;;;;;;;3.72;2.55;;;;;;;4.82;94.97;101679.09;4922332;29;20094;-85
2021/12/14 09:37:24;;;;;;;5.05;2.35;;;;;;;4.87;95.09;101690.06;4929834;28;20061;-86
2021/12/14 09:39:55;;;;;;;6.45;2.70;;;;;;;4.92;94.76;101681.81;4923423;29;20043;-87
2021/12/14 09:42:27;;;;;;;3.10;1.77;;;;;;;4.97;94.93;101679.03;4945379;28;20047;-86
2021/12/14 09:44:58;;;;;;;3.42;1.75;;;;;;;5.04;94.89;101682.25;4947149;28;20071;-86
2021/12/14 09:47:30;;;;;;;4.07;2.30;;;;;;;5.09;94.68;101684.97;4948437;28;20157;-85
2021/12/14 09:50:04;;;;;;;2.58;1.67;;;;;;;5.16;95.06;101690.97;4933539;28;20108;-86
2021/12/14 09:52:34;;;;;;;7.05;2.38;;;;;;;5.21;94.66;101690.91;4918153;28;20130;-86
2021/12/14 09:55:07;;;;;;;3.78;2.30;;;;;;;5.25;95.01;101693.91;4932049;28;20043;-86
2021/12/14 09:57:41;;;;;;;2.55;1.80;;;;;;;5.29;94.70;101693.06;4949811;28;20656;-86
2021/12/14 10:00:20;;;;;;;2.53;1.63;;;;;;;5.36;94.68;101693.53;4965190;28;20054;-86
2021/12/14 10:02:49;;;;;;;3.83;1.90;;;;;;;5.44;94.63;101701.16;4933668;28;20051;-85
2021/12/14 10:05:24;;;;;;;3.88;1.77;;;;;;;5.47;94.58;101700.59;4959914;28;20039;-85
2021/12/14 10:07:54;;;;;;;2.22;1.63;;;;;;;5.51;94.54;101701.63;4936503;28;20101;-88
2021/12/14 10:10:23;;;;;;;2.38;1.45;;;;;;;5.58;94.51;101705.97;4961783;28;20035;-87
2021/12/14 10:12:54;;;;;;;3.75;1.63;;;;;;;5.62;94.30;101698.78;4960048;28;20051;-85
2021/12/14 10:15:35;;;;;;;7.25;1.65;;;;;;;5.66;94.13;101708.09;4959829;28;20125;-85
2021/12/14 10:18:07;;;;;;;3.92;1.48;;;;;;;5.68;94.06;101703.97;4958187;28;20082;-85
2021/12/14 10:20:54;;;;;;;2.10;1.50;;;;;;;5.73;94.05;101708.59;4961299;28;20061;-87
2021/12/14 10:23:23;;;;;;;2.47;1.10;;;;;;;5.77;94.00;101696.72;4942464;28;20518;-85
2021/12/14 10:25:52;;;;;;;5.10;1.88;;;;;;;5.81;94.00;101699.72;4942096;28;20078;-86
2021/12/14 10:28:20;;;;;;;5.30;1.95;;;;;;;5.85;93.66;101712.59;4959857;28;20063;-86
2021/12/14 10:30:54;;;;;;;3.40;1.00;;;;;;;5.88;93.76;101712.03;4959382;28;20061;-87
2021/12/14 10:33:23;;;;;;;1.55;1.10;;;;;;;5.92;93.34;101706.78;4944494;28;20046;-86
2021/12/14 10:35:56;;;;;;;2.75;1.05;;;;;;;5.94;93.18;101705.38;4954997;28;20046;-86
2021/12/14 10:43:47;;;;;;;2.55;0.95;;;;;;;6.03;93.03;101697.31;4960996;28;20212;-87
2021/12/14 10:46:38;;;;;;;5.88;1.77;;;;;;;6.08;92.77;101700.84;4949690;28;20051;-86
2021/12/14 10:49:06;;;;;;;2.83;2.38;;;;;;;6.11;92.92;101702.19;4957712;28;20050;-86
2021/12/14 10:51:37;;;;;;;2.60;1.15;;;;;;;6.14;92.86;101704.34;4955171;28;20465;-85
2021/12/14 10:54:10;;;;;;;2.90;1.30;;;;;;;6.19;92.71;101706.22;4949202;28;20062;-85
2021/12/14 10:56:43;;;;;;;5.68;1.70;;;;;;;6.19;92.51;101712.53;4964392;28;20039;-86
2021/12/14 10:59:17;;;;;;;3.83;1.42;;;;;;;6.21;92.52;101709.47;4956957;28;20039;-87
2021/12/14 11:01:50;;;;;;;3.58;1.55;;;;;;;6.25;92.51;101714.09;4958795;28;20047;-85
2021/12/14 11:04:26;;;;;;;3.80;1.33;;;;;;;6.26;92.26;101706.66;4956237;28;21979;-88
2021/12/14 11:06:55;;;;;;;2.63;1.40;;;;;;;6.29;92.62;101700.59;4923792;28;20047;-88
2021/12/14 11:09:42;;;;;;;4.65;2.15;;;;;;;6.31;92.59;101712.94;4954282;28;20049;-86
2021/12/14 11:12:19;;;;;;;2.03;1.25;;;;;;;6.38;92.55;101699.63;4958068;28;20133;-85
2021/12/14 11:14:51;;;;;;;1.48;1.10;;;;;;;6.42;92.40;101689.69;4958624;28;20112;-85
2021/12/14 11:20:25;;;;;;;3.80;1.02;;;;;;;6.51;92.15;101687.13;4943192;28;20050;-83
2021/12/14 11:23:09;;;;;;;4.03;0.95;;;;;;;6.61;92.16;101685.06;4940955;28;20053;-84
2021/12/14 11:25:44;;;;;;;2.28;0.65;;;;;;;6.69;91.99;101683.56;4934706;28;20054;-84
2021/12/14 11:28:20;;;;;;;4.47;1.20;;;;;;;6.75;91.89;101685.94;4950905;28;20061;-84
2021/12/14 11:30:52;;;;;;;1.33;0.80;;;;;;;6.81;91.55;101688.63;4945283;28;21023;-85
2021/12/14 11:33:26;;;;;;;;;;;;;;;6.86;90.62;101672.06;4940122;28;20109;-85
2021/12/14 11:36:15;;;;;;;1.67;0.40;;;;;;;6.95;91.07;101684.84;4956160;28;19930;-85
2021/12/14 11:38:48;;;;;;;2.67;0.90;;;;;;;7.05;90.60;101684.66;4926305;28;20053;-85
2021/12/14 11:41:30;;;;;;;1.10;0.60;;;;;;;7.09;90.40;101660.13;4964811;28;20138;-83
2021/12/14 11:44:14;;;;;;;2.25;0.70;;;;;;;7.13;89.94;101666.66;4958588;28;20059;-84
2021/12/14 11:46:51;;;;;;;2.20;1.27;;;;;;;7.18;89.94;101666.56;4959123;28;20037;-86
2021/12/14 11:49:20;;;;;;;3.20;1.35;;;;;;;7.22;89.76;101660.19;4934805;28;20043;-84
2021/12/14 11:51:47;;;;;;;2.00;0.75;;;;;;;7.26;89.32;101654.88;4955666;28;20159;-83
2021/12/14 11:54:18;;;;;;;0.82;0.47;;;;;;;7.30;89.40;101658.69;4967408;28;20489;-84
2021/12/14 11:56:46;;;;;;;2.25;0.57;;;;;;;7.34;89.08;101654.19;4937499;28;20098;-84
2021/12/14 11:59:15;;;;;;;1.70;0.90;;;;;;;7.38;89.31;101649.72;4961329;28;20054;-85
2021/12/14 12:01:49;;;;;;;2.65;0.95;;;;;;;7.41;88.82;101651.06;4961291;28;20038;-84
2021/12/14 12:04:19;;;;;;;1.92;1.02;;;;;;;7.42;88.64;101647.16;4937024;28;20098;-84
2021/12/14 12:09:41;;;;;;;1.70;0.90;;;;;;;7.49;88.36;101642.91;4963680;28;20127;-84
2021/12/14 12:12:13;;;;;;;1.55;1.05;;;;;;;7.51;88.56;101640.66;4959980;28;20119;-85
2021/12/14 12:14:47;;;;;;;2.35;0.85;;;;;;;7.53;88.42;101634.84;4965610;28;20496;-84
2021/12/14 12:17:14;;;;;;;2.35;0.63;;;;;;;7.54;88.43;101636.50;4937618;28;20043;-85
2021/12/14 12:20:03;;;;;;;1.75;0.52;;;;;;;7.58;87.74;101632.00;4950511;28;20043;-85
2021/12/14 12:22:47;;;;;;;3.80;1.63;;;;;;;7.60;88.13;101632.53;4960322;28;20050;-85
2021/12/14 12:25:26;;;;;;;1.10;0.60;;;;;;;7.63;88.10;101637.41;4960100;28;20038;-84
2021/12/14 12:27:57;;;;;;;1.45;0.82;;;;;;;7.67;87.71;101633.75;4944945;28;21051;-85
2021/12/14 12:30:47;;;;;;;3.30;1.65;;;;;;;7.72;87.54;101635.59;4965350;28;20050;-85
2021/12/14 12:33:29;;;;;;;1.45;0.50;;;;;;;7.74;87.34;101623.16;4950352;28;20043;-85
2021/12/14 12:36:02;;;;;;;1.88;0.65;;;;;;;7.78;86.98;101626.91;4961472;28;20055;-85
2021/12/14 12:38:54;;;;;;;1.42;0.77;;;;;;;7.80;86.38;101621.94;4975561;28;20130;-85